Time;durP1;ratioP1;P1;durP2;ratioP2;P2;SDS_P1;SDS_P2;PMS_P1;PMS_P2;Temp;Humidity;BMP_temperature;BMP_pressure;BME280_temperature;BME280_humidity;BME280_pressure;Samples;Min_cycle;Max_cycle;Signal;HPM_P1;HPM_P2
2022/01/20 00:02:22;;;;;;;10.10;2.33;;;3.00;99.90;;;;;;5045880;28;20273;-43
2022/01/20 00:04:52;;;;;;;10.37;1.67;;;3.00;99.90;;;;;;5032878;28;20229;-43
2022/01/20 00:07:30;;;;;;;10.63;2.13;;;3.00;99.90;;;;;;5051740;28;20223;-42
2022/01/20 00:26:46;;;;;;;8.87;1.70;;;2.90;99.90;;;;;;5051767;28;20193;-43
2022/01/20 00:29:21;;;;;;;18.97;2.73;;;3.00;99.90;;;;;;5065018;28;20205;-43
2022/01/20 00:32:03;;;;;;;11.27;2.67;;;3.00;99.90;;;;;;5052832;28;20291;-45
2022/01/20 00:34:53;;;;;;;15.00;2.77;;;3.10;99.90;;;;;;5030660;28;20230;-49
2022/01/20 00:37:19;;;;;;;12.30;2.20;;;3.10;99.90;;;;;;5054867;28;20764;-43
2022/01/20 00:39:46;;;;;;;13.80;2.53;;;3.10;99.90;;;;;;5063012;28;20870;-43
2022/01/20 00:42:15;;;;;;;13.43;2.90;;;3.20;99.90;;;;;;5055439;28;20206;-45
2022/01/20 00:44:42;;;;;;;19.07;2.73;;;3.20;99.90;;;;;;5053225;28;20396;-46
2022/01/20 00:47:10;;;;;;;14.10;2.73;;;3.30;99.90;;;;;;5064411;28;20199;-44
2022/01/20 00:49:37;;;;;;;20.27;3.07;;;3.30;99.90;;;;;;5045349;28;20205;-47
2022/01/20 00:52:06;;;;;;;16.87;2.97;;;3.50;99.90;;;;;;5042040;28;20199;-44
2022/01/20 00:54:33;;;;;;;13.57;2.60;;;3.60;99.90;;;;;;5052080;28;20226;-45
2022/01/20 00:57:01;;;;;;;14.20;2.73;;;3.70;99.90;;;;;;5061605;28;20256;-45
2022/01/20 00:59:29;;;;;;;13.90;2.93;;;3.70;99.90;;;;;;5061155;28;20865;-43
2022/01/20 01:01:56;;;;;;;14.23;2.30;;;3.80;99.90;;;;;;5062967;28;20217;-46
2022/01/20 01:04:26;;;;;;;18.97;2.73;;;3.80;99.90;;;;;;5049759;28;20217;-45
2022/01/20 01:07:12;;;;;;;4.73;1.47;;;3.90;99.90;;;;;;5042031;28;20210;-44
2022/01/20 01:09:40;;;;;;;6.50;1.90;;;4.00;99.90;;;;;;5057319;28;20289;-46
2022/01/20 01:12:11;;;;;;;12.90;2.20;;;4.00;99.90;;;;;;5065075;28;20195;-44
2022/01/20 01:14:43;;;;;;;11.67;1.90;;;4.00;99.90;;;;;;5056094;28;20230;-45
2022/01/20 01:20:10;;;;;;;5.23;1.63;;;4.00;99.90;;;;;;5045008;28;20211;-43
2022/01/20 01:22:38;;;;;;;8.40;2.60;;;4.00;99.90;;;;;;5034560;28;20203;-47
2022/01/20 01:25:05;;;;;;;9.37;1.90;;;4.00;99.90;;;;;;5049113;28;20219;-43
2022/01/20 01:27:37;;;;;;;8.97;2.13;;;4.00;99.90;;;;;;5052938;28;20234;-45
2022/01/20 01:30:19;;;;;;;9.87;1.93;;;4.00;99.90;;;;;;5063522;28;20207;-44
2022/01/20 01:32:52;;;;;;;10.50;1.83;;;4.00;99.90;;;;;;5063649;28;20197;-45
2022/01/20 01:35:23;;;;;;;8.83;1.73;;;3.80;99.90;;;;;;5046102;28;20222;-44
2022/01/20 01:40:37;;;;;;;6.00;1.23;;;3.40;99.90;;;;;;5051884;28;20191;-44
2022/01/20 01:43:12;;;;;;;4.10;1.03;;;3.20;99.90;;;;;;5056669;28;20501;-46
2022/01/20 01:45:41;;;;;;;3.93;1.20;;;3.20;99.90;;;;;;5060667;28;20308;-46
2022/01/20 01:48:12;;;;;;;6.90;1.27;;;3.10;99.90;;;;;;5062227;28;20219;-44
2022/01/20 01:50:41;;;;;;;7.63;1.47;;;3.10;99.90;;;;;;5043640;28;20199;-44
2022/01/20 01:53:09;;;;;;;11.03;1.77;;;3.10;99.90;;;;;;5049155;28;20228;-43
2022/01/20 01:55:37;;;;;;;2.33;0.90;;;3.10;99.90;;;;;;5053769;28;20222;-44
2022/01/20 01:58:05;;;;;;;6.33;2.30;;;3.10;99.90;;;;;;5062831;28;20202;-43
2022/01/20 02:00:34;;;;;;;5.57;1.73;;;3.10;99.90;;;;;;5052916;28;20199;-45
2022/01/20 02:03:04;;;;;;;5.43;1.37;;;3.10;99.90;;;;;;5063140;28;20194;-45
2022/01/20 02:05:58;;;;;;;6.50;1.27;;;3.10;99.90;;;;;;5048880;28;20233;-43
2022/01/20 02:08:32;;;;;;;8.07;1.40;;;3.10;99.90;;;;;;5039265;28;20225;-44
2022/01/20 02:19:19;;;;;;;9.07;2.17;;;3.10;99.90;;;;;;5040987;28;20210;-45
2022/01/20 02:21:52;;;;;;;5.57;1.17;;;3.10;99.90;;;;;;5042289;28;20225;-44
2022/01/20 02:24:22;;;;;;;4.53;1.50;;;3.10;99.90;;;;;;5038066;28;20706;-45
2022/01/20 02:26:50;;;;;;;13.27;2.53;;;3.00;99.90;;;;;;5052099;28;20199;-43
2022/01/20 02:29:26;;;;;;;7.27;1.87;;;3.00;99.90;;;;;;5058265;28;20577;-44
2022/01/20 02:31:55;;;;;;;11.27;1.33;;;3.00;99.90;;;;;;5055489;28;20217;-43
2022/01/20 02:34:24;;;;;;;5.73;1.83;;;3.00;99.90;;;;;;5043418;28;20207;-43
2022/01/20 02:37:15;;;;;;;17.03;2.23;;;3.00;99.90;;;;;;5042843;28;20242;-45
2022/01/20 02:40:03;;;;;;;13.47;1.73;;;2.90;99.90;;;;;;5032511;28;20226;-43
2022/01/20 02:45:15;;;;;;;7.10;1.30;;;2.90;99.90;;;;;;5042389;28;20225;-44
2022/01/20 02:47:42;;;;;;;16.23;2.37;;;2.90;99.90;;;;;;5051702;28;20187;-44
2022/01/20 02:50:10;;;;;;;7.57;1.33;;;2.80;99.90;;;;;;5055580;28;20285;-44
2022/01/20 02:52:39;;;;;;;7.67;1.43;;;2.90;99.90;;;;;;5047720;28;20207;-43
2022/01/20 02:55:07;;;;;;;13.13;2.43;;;2.80;99.90;;;;;;5041769;28;20227;-46
2022/01/20 02:57:34;;;;;;;14.47;2.20;;;2.80;99.90;;;;;;5055604;28;20979;-45
2022/01/20 03:00:00;;;;;;;9.43;1.83;;;2.80;99.90;;;;;;5052133;28;20664;-43
2022/01/20 03:02:27;;;;;;;5.70;1.40;;;2.70;99.90;;;;;;5045005;28;20199;-45
2022/01/20 03:04:54;;;;;;;8.20;1.83;;;2.70;99.90;;;;;;5053508;28;20222;-43
2022/01/20 03:07:29;;;;;;;8.70;1.90;;;2.60;99.90;;;;;;5041421;28;20287;-43
2022/01/20 03:09:57;;;;;;;12.17;2.43;;;2.60;99.90;;;;;;5050334;28;20203;-43
2022/01/20 03:12:24;;;;;;;7.63;1.83;;;2.60;99.90;;;;;;5040967;28;20695;-43
2022/01/20 03:14:51;;;;;;;8.37;1.73;;;2.60;99.90;;;;;;5042980;28;20223;-45
2022/01/20 03:17:18;;;;;;;12.77;2.33;;;2.60;99.90;;;;;;5045095;28;20401;-43
2022/01/20 03:19:45;;;;;;;7.00;2.23;;;2.60;99.90;;;;;;5043016;28;20394;-44
2022/01/20 03:22:12;;;;;;;9.87;2.00;;;2.60;99.90;;;;;;5053279;28;20206;-43
2022/01/20 03:24:38;;;;;;;13.13;3.03;;;2.60;99.90;;;;;;5038314;28;20218;-45
2022/01/20 03:27:07;;;;;;;8.10;1.53;;;2.60;99.90;;;;;;5040731;28;20207;-43
2022/01/20 03:29:35;;;;;;;10.73;1.97;;;2.60;99.90;;;;;;5051655;28;20192;-46
2022/01/20 03:32:01;;;;;;;7.13;1.77;;;2.60;99.90;;;;;;5042396;28;20199;-43
2022/01/20 03:34:28;;;;;;;9.53;1.63;;;2.60;99.90;;;;;;5037939;28;20215;-46
2022/01/20 03:37:03;;;;;;;7.60;1.70;;;2.60;99.90;;;;;;5041853;28;20734;-44
2022/01/20 03:39:44;;;;;;;11.23;2.40;;;2.60;99.90;;;;;;5047125;28;20211;-43
2022/01/20 03:42:12;;;;;;;9.30;1.30;;;2.70;99.90;;;;;;5035076;28;20229;-43
2022/01/20 03:44:39;;;;;;;6.33;1.70;;;2.60;99.90;;;;;;5050534;28;20305;-45
2022/01/20 03:47:08;;;;;;;7.63;1.20;;;2.60;99.90;;;;;;5043094;28;20257;-43
2022/01/20 03:49:38;;;;;;;2.97;1.30;;;2.50;99.90;;;;;;5057583;28;20198;-43
2022/01/20 03:52:07;;;;;;;10.50;1.60;;;2.20;99.90;;;;;;5058950;28;20230;-45
2022/01/20 03:54:34;;;;;;;7.57;1.47;;;2.10;99.90;;;;;;5038974;28;20537;-48
2022/01/20 03:57:18;;;;;;;12.03;1.03;;;1.90;99.90;;;;;;5034389;28;20230;-43
2022/01/20 04:00:00;;;;;;;6.53;0.97;;;1.80;99.90;;;;;;5056227;28;20288;-45
2022/01/20 04:02:41;;;;;;;7.03;1.57;;;1.80;99.90;;;;;;5040601;28;20544;-43
2022/01/20 04:05:25;;;;;;;8.23;0.97;;;1.90;99.90;;;;;;5045183;28;20306;-45
2022/01/20 04:08:08;;;;;;;6.57;1.40;;;2.00;99.90;;;;;;5044386;28;20289;-44
2022/01/20 04:10:35;;;;;;;9.17;2.27;;;2.10;99.90;;;;;;5047592;28;20256;-47
2022/01/20 04:13:03;;;;;;;7.00;0.90;;;2.20;99.90;;;;;;5043455;28;20199;-48
2022/01/20 04:15:38;;;;;;;7.23;1.30;;;2.20;99.90;;;;;;5043755;28;20238;-43
2022/01/20 04:18:06;;;;;;;7.50;1.60;;;2.20;99.90;;;;;;5052251;28;20553;-44
2022/01/20 04:20:32;;;;;;;6.70;1.50;;;2.20;99.90;;;;;;5042604;28;20245;-43
2022/01/20 04:22:59;;;;;;;9.53;1.43;;;2.20;99.90;;;;;;5043358;28;20195;-43
2022/01/20 04:25:26;;;;;;;6.67;1.73;;;2.20;99.90;;;;;;5044122;28;20243;-45
2022/01/20 04:27:53;;;;;;;6.33;1.07;;;2.10;99.90;;;;;;5038514;28;20192;-45
2022/01/20 04:30:22;;;;;;;8.07;1.60;;;2.10;99.90;;;;;;5052722;28;20196;-45
2022/01/20 04:32:49;;;;;;;5.33;1.60;;;2.10;99.90;;;;;;5053744;28;20290;-43
2022/01/20 04:35:19;;;;;;;5.40;1.93;;;2.10;99.90;;;;;;5040920;28;20227;-46
2022/01/20 04:37:47;;;;;;;10.70;1.70;;;2.10;99.90;;;;;;5054609;28;20222;-47
2022/01/20 04:40:14;;;;;;;7.07;1.40;;;2.10;99.90;;;;;;5047332;28;20298;-43
2022/01/20 04:42:44;;;;;;;6.30;1.63;;;2.10;99.90;;;;;;5058396;28;20191;-43
2022/01/20 04:45:16;;;;;;;5.10;1.43;;;2.10;99.90;;;;;;5049448;28;20708;-46
2022/01/20 04:47:50;;;;;;;6.67;1.57;;;2.10;99.90;;;;;;5048190;28;20191;-47
2022/01/20 04:58:30;;;;;;;8.50;1.67;;;2.10;99.90;;;;;;5047049;28;20242;-43
2022/01/20 05:00:57;;;;;;;13.70;2.00;;;2.10;99.90;;;;;;5031943;28;20206;-43
2022/01/20 05:03:34;;;;;;;12.53;2.10;;;2.00;99.90;;;;;;5046839;28;20198;-46
2022/01/20 05:06:16;;;;;;;8.83;1.93;;;2.00;99.90;;;;;;5051167;28;20233;-45
2022/01/20 05:08:43;;;;;;;11.03;2.07;;;2.00;99.90;;;;;;5063889;28;20195;-43
2022/01/20 05:11:12;;;;;;;13.00;1.80;;;2.10;99.90;;;;;;5056810;28;20690;-42
2022/01/20 05:13:40;;;;;;;8.07;2.27;;;2.10;99.90;;;;;;5048119;28;20202;-43
2022/01/20 05:16:09;;;;;;;13.23;2.53;;;2.10;99.90;;;;;;5045652;28;20356;-44
2022/01/20 05:18:38;;;;;;;14.80;2.27;;;2.10;99.90;;;;;;5045285;28;20337;-44
2022/01/20 05:21:06;;;;;;;13.37;2.40;;;2.10;99.90;;;;;;5057295;28;20207;-44
2022/01/20 05:23:35;;;;;;;14.80;2.17;;;2.10;99.90;;;;;;5037623;28;20324;-42
2022/01/20 05:26:07;;;;;;;8.33;2.23;;;2.20;99.90;;;;;;5046187;28;20697;-43
2022/01/20 05:28:34;;;;;;;5.57;1.60;;;2.20;99.90;;;;;;5040367;28;20890;-44
2022/01/20 05:31:01;;;;;;;10.90;1.80;;;2.20;99.90;;;;;;5039382;28;20210;-47
2022/01/20 05:33:59;;;;;;;7.10;1.90;;;2.20;99.90;;;;;;5053757;28;20202;-47
2022/01/20 05:36:26;;;;;;;8.93;1.80;;;2.20;99.90;;;;;;5054338;28;20702;-43
2022/01/20 05:38:54;;;;;;;9.27;1.80;;;2.20;99.90;;;;;;5045126;28;20707;-44
2022/01/20 05:41:21;;;;;;;11.63;2.47;;;2.20;99.90;;;;;;5046048;28;20202;-42
2022/01/20 05:43:48;;;;;;;15.53;3.97;;;2.20;99.90;;;;;;5054606;28;20199;-42
2022/01/20 05:46:17;;;;;;;10.17;1.87;;;2.20;99.90;;;;;;5040309;28;20231;-42
2022/01/20 05:48:47;;;;;;;15.03;2.37;;;2.20;99.90;;;;;;5054253;28;20195;-44
2022/01/20 05:51:39;;;;;;;11.20;1.70;;;2.20;99.90;;;;;;5043481;28;20333;-43
2022/01/20 05:54:08;;;;;;;14.73;2.47;;;2.20;99.90;;;;;;5045819;28;20678;-41
2022/01/20 05:56:35;;;;;;;13.83;2.13;;;2.20;99.90;;;;;;5038699;28;20290;-44
2022/01/20 05:59:02;;;;;;;12.50;2.33;;;2.20;99.90;;;;;;5055587;28;20225;-41
2022/01/20 06:01:32;;;;;;;15.23;2.37;;;2.20;99.90;;;;;;5034232;28;20301;-41
2022/01/20 06:04:00;;;;;;;14.03;2.57;;;2.30;99.90;;;;;;5049346;28;20213;-42
2022/01/20 06:06:28;;;;;;;9.50;2.13;;;2.30;99.90;;;;;;5050084;28;20749;-42
2022/01/20 06:08:57;;;;;;;13.10;2.40;;;2.30;99.90;;;;;;5043771;28;20218;-45
2022/01/20 06:11:24;;;;;;;15.50;3.40;;;2.20;99.90;;;;;;5034271;28;20239;-43
2022/01/20 06:13:52;;;;;;;14.87;2.10;;;2.20;99.90;;;;;;5054498;28;20209;-44
2022/01/20 06:16:19;;;;;;;13.00;2.73;;;2.20;99.90;;;;;;5038613;28;20703;-41
2022/01/20 06:18:46;;;;;;;13.20;2.00;;;2.20;99.90;;;;;;5045599;28;20239;-41
2022/01/20 06:21:14;;;;;;;16.40;2.27;;;2.20;99.90;;;;;;5053057;28;20647;-45
2022/01/20 06:23:41;;;;;;;9.07;1.90;;;2.20;99.90;;;;;;5043145;28;20195;-42
2022/01/20 06:26:09;;;;;;;15.63;2.87;;;2.10;99.90;;;;;;5041704;28;20219;-45
2022/01/20 06:28:40;;;;;;;11.90;1.97;;;2.10;99.90;;;;;;5035988;28;20295;-44
2022/01/20 06:31:09;;;;;;;17.27;2.97;;;2.10;99.90;;;;;;5029665;28;20211;-41
2022/01/20 06:33:37;;;;;;;12.73;2.37;;;2.10;99.90;;;;;;5050509;28;20253;-45
2022/01/20 06:36:05;;;;;;;11.27;2.33;;;2.20;99.90;;;;;;5041248;28;20806;-41
2022/01/20 06:38:32;;;;;;;10.00;2.37;;;2.20;99.90;;;;;;5052302;28;20698;-44
2022/01/20 06:41:00;;;;;;;10.83;2.23;;;2.20;99.90;;;;;;5034905;28;20724;-41
2022/01/20 06:43:33;;;;;;;7.43;2.40;;;2.20;99.90;;;;;;5047644;28;20199;-44
2022/01/20 06:46:00;;;;;;;16.83;2.53;;;2.20;99.90;;;;;;5030154;28;20324;-42
2022/01/20 06:48:45;;;;;;;18.27;2.77;;;2.20;99.90;;;;;;5052475;28;20206;-40
2022/01/20 06:51:26;;;;;;;7.43;1.97;;;2.20;99.90;;;;;;5039162;28;20671;-44
2022/01/20 06:53:53;;;;;;;15.47;2.53;;;2.20;99.90;;;;;;5040766;28;20680;-40
2022/01/20 06:56:20;;;;;;;14.50;3.13;;;2.30;99.90;;;;;;5044592;28;20337;-41
2022/01/20 06:58:48;;;;;;;8.57;2.10;;;2.30;99.90;;;;;;5044294;28;20224;-41
2022/01/20 07:01:16;;;;;;;6.87;2.13;;;2.30;99.90;;;;;;5036379;28;20214;-44
2022/01/20 07:03:45;;;;;;;9.53;2.23;;;2.30;99.90;;;;;;5049424;28;20203;-44
2022/01/20 07:06:12;;;;;;;9.53;2.23;;;2.30;99.90;;;;;;5045828;28;20227;-43
2022/01/20 07:08:59;;;;;;;12.63;1.90;;;2.30;99.90;;;;;;5040634;28;20214;-43
2022/01/20 07:11:26;;;;;;;11.13;2.33;;;2.30;99.90;;;;;;5037512;28;20203;-43
2022/01/20 07:13:54;;;;;;;11.67;2.37;;;2.30;99.90;;;;;;5035590;28;20187;-41
2022/01/20 07:16:21;;;;;;;11.17;2.37;;;2.30;99.90;;;;;;5035719;28;20691;-42
2022/01/20 07:18:50;;;;;;;5.23;2.20;;;2.30;99.90;;;;;;5044948;28;20210;-41
2022/01/20 07:21:17;;;;;;;11.97;2.70;;;2.20;99.90;;;;;;5046747;28;20592;-41
2022/01/20 07:23:53;;;;;;;14.93;2.23;;;2.20;99.90;;;;;;5051551;28;20198;-40
2022/01/20 07:26:19;;;;;;;8.00;2.03;;;2.20;99.90;;;;;;5044510;28;20242;-40
2022/01/20 07:28:57;;;;;;;11.13;2.50;;;2.20;99.90;;;;;;5044993;28;20248;-40
2022/01/20 07:31:23;;;;;;;14.13;2.43;;;2.20;99.90;;;;;;5050227;28;20198;-41
2022/01/20 07:33:51;;;;;;;10.97;1.90;;;2.20;99.90;;;;;;5035417;28;20886;-41
2022/01/20 07:36:19;;;;;;;13.10;3.27;;;2.20;99.90;;;;;;5048135;28;20572;-43
2022/01/20 07:38:45;;;;;;;16.57;2.53;;;2.20;99.90;;;;;;5041930;28;20217;-43
2022/01/20 07:41:13;;;;;;;10.30;2.40;;;2.20;99.90;;;;;;5056685;28;20202;-42
2022/01/20 07:43:41;;;;;;;9.40;2.77;;;2.20;99.90;;;;;;5036293;28;20275;-44
2022/01/20 07:46:27;;;;;;;10.53;2.77;;;2.20;99.90;;;;;;5040813;28;20717;-43
2022/01/20 07:49:02;;;;;;;8.03;2.20;;;2.20;99.90;;;;;;5029448;28;20198;-41
2022/01/20 07:51:29;;;;;;;12.53;2.57;;;2.20;99.90;;;;;;5036865;28;20195;-41
2022/01/20 07:53:57;;;;;;;14.43;2.57;;;2.20;99.90;;;;;;5039476;28;20261;-42
2022/01/20 07:56:24;;;;;;;11.73;2.43;;;2.30;99.90;;;;;;5054466;28;20229;-41
2022/01/20 07:58:50;;;;;;;9.30;2.07;;;2.30;99.90;;;;;;5039486;28;20568;-40
2022/01/20 08:01:17;;;;;;;14.87;2.33;;;2.30;99.90;;;;;;5045320;28;20207;-41
2022/01/20 08:03:56;;;;;;;11.13;2.80;;;2.30;99.90;;;;;;5036848;28;20221;-41
2022/01/20 08:06:27;;;;;;;12.93;2.23;;;2.30;99.90;;;;;;5044339;28;20711;-40
2022/01/20 08:09:24;;;;;;;13.93;1.90;;;2.40;99.90;;;;;;5037826;28;20210;-41
2022/01/20 08:12:04;;;;;;;9.57;1.87;;;2.30;99.90;;;;;;5051614;28;20202;-41
2022/01/20 08:14:43;;;;;;;9.23;2.30;;;2.40;99.90;;;;;;5044085;28;20573;-40
2022/01/20 08:17:14;;;;;;;12.00;2.30;;;2.40;99.90;;;;;;5045097;28;20210;-40
2022/01/20 08:19:47;;;;;;;13.30;2.00;;;2.40;99.90;;;;;;5041184;28;20935;-40
2022/01/20 08:22:15;;;;;;;11.10;1.90;;;2.40;99.90;;;;;;5054917;28;20295;-41
2022/01/20 08:24:43;;;;;;;12.10;1.97;;;2.50;99.90;;;;;;5049896;28;20318;-41
2022/01/20 08:27:10;;;;;;;13.07;2.03;;;2.40;99.90;;;;;;5057547;28;20207;-44
2022/01/20 08:29:38;;;;;;;7.80;2.13;;;2.50;99.90;;;;;;5048609;28;20259;-42
2022/01/20 08:32:06;;;;;;;16.80;1.90;;;2.50;99.90;;;;;;5052251;28;20192;-42
2022/01/20 08:34:51;;;;;;;10.27;1.83;;;2.50;99.90;;;;;;5036097;28;20215;-42
2022/01/20 08:37:34;;;;;;;4.47;1.70;;;2.50;99.90;;;;;;5045548;28;20294;-43
2022/01/20 08:40:05;;;;;;;11.50;2.87;;;2.60;99.90;;;;;;5054886;28;20217;-42
2022/01/20 08:42:56;;;;;;;14.97;2.57;;;2.60;99.90;;;;;;5054265;28;20572;-43
2022/01/20 08:45:27;;;;;;;6.93;1.97;;;2.60;99.90;;;;;;5044851;28;20678;-41
2022/01/20 08:47:57;;;;;;;8.33;2.40;;;2.60;99.90;;;;;;5042701;28;20210;-41
2022/01/20 08:50:32;;;;;;;13.30;2.50;;;2.60;99.90;;;;;;5034774;28;20265;-41
2022/01/20 08:52:59;;;;;;;10.57;2.23;;;2.60;99.90;;;;;;5050491;28;20198;-43
2022/01/20 08:55:27;;;;;;;9.13;1.87;;;2.60;99.90;;;;;;5053489;28;20232;-40
2022/01/20 08:57:55;;;;;;;7.03;2.33;;;2.60;99.90;;;;;;5051413;28;20195;-47
2022/01/20 09:00:24;;;;;;;8.63;2.60;;;2.60;99.90;;;;;;5042831;28;20195;-43
2022/01/20 09:03:04;;;;;;;10.00;2.17;;;2.60;99.90;;;;;;5053266;28;20203;-40
2022/01/20 09:05:33;;;;;;;10.07;2.27;;;2.60;99.90;;;;;;5027222;28;20219;-41
2022/01/20 09:08:07;;;;;;;5.57;1.67;;;2.70;99.90;;;;;;5051097;28;20240;-41
2022/01/20 09:10:38;;;;;;;8.67;1.83;;;2.70;99.90;;;;;;5043803;28;20226;-41
2022/01/20 09:15:55;;;;;;;5.47;1.93;;;2.90;99.90;;;;;;5049291;28;20706;-41
2022/01/20 09:18:30;;;;;;;13.53;2.17;;;3.00;99.90;;;;;;5041977;28;20917;-43
2022/01/20 09:20:59;;;;;;;7.87;1.70;;;3.10;99.90;;;;;;5052908;28;20203;-43
2022/01/20 09:23:26;;;;;;;8.00;1.63;;;3.10;99.90;;;;;;5028064;28;20219;-41
2022/01/20 09:25:53;;;;;;;7.07;1.43;;;3.00;99.90;;;;;;5056543;28;20231;-43
2022/01/20 09:28:21;;;;;;;6.90;2.03;;;3.00;99.90;;;;;;5043747;28;20196;-42
2022/01/20 09:30:49;;;;;;;8.10;1.27;;;2.90;99.90;;;;;;5053848;28;20673;-40
2022/01/20 09:33:26;;;;;;;10.43;1.63;;;2.90;99.90;;;;;;5041471;28;20205;-41
2022/01/20 09:35:53;;;;;;;10.47;2.07;;;2.80;99.90;;;;;;5043777;28;20218;-41
2022/01/20 09:38:21;;;;;;;6.07;1.30;;;2.80;99.90;;;;;;5034117;28;20217;-45
2022/01/20 09:40:49;;;;;;;9.63;1.20;;;2.80;99.90;;;;;;5045371;28;20256;-41
2022/01/20 09:43:16;;;;;;;6.00;1.77;;;2.70;99.90;;;;;;5043922;28;20248;-42
2022/01/20 09:45:46;;;;;;;14.73;2.30;;;2.80;99.90;;;;;;5051628;28;20216;-42
2022/01/20 09:48:13;;;;;;;6.47;1.23;;;2.80;99.90;;;;;;5046796;28;20282;-46
2022/01/20 09:51:01;;;;;;;6.63;1.53;;;2.70;99.90;;;;;;5045840;28;20279;-43
2022/01/20 09:53:51;;;;;;;12.73;1.80;;;2.70;99.90;;;;;;5038147;28;20219;-43
2022/01/20 09:56:30;;;;;;;6.70;1.00;;;2.60;99.90;;;;;;5041369;28;20753;-43
2022/01/20 09:58:56;;;;;;;5.83;1.10;;;2.60;99.90;;;;;;5046516;28;22226;-41
2022/01/20 10:01:41;;;;;;;7.27;1.47;;;2.50;99.90;;;;;;5042436;28;20207;-43
2022/01/20 10:04:19;;;;;;;7.33;1.20;;;2.50;99.90;;;;;;5043404;28;20690;-41
2022/01/20 10:06:58;;;;;;;6.50;1.30;;;2.50;99.90;;;;;;5041160;28;20293;-41
2022/01/20 10:09:34;;;;;;;7.67;1.50;;;2.60;99.90;;;;;;5035122;28;20540;-41
2022/01/20 10:12:28;;;;;;;9.93;1.50;;;2.70;99.90;;;;;;5041796;28;20306;-42
2022/01/20 10:15:15;;;;;;;7.83;1.37;;;2.70;99.90;;;;;;5050600;28;20563;-41
2022/01/20 10:18:05;;;;;;;7.17;1.33;;;2.70;99.90;;;;;;5046176;28;20290;-40
2022/01/20 10:20:33;;;;;;;6.90;1.97;;;2.50;99.90;;;;;;5036731;28;20283;-44
2022/01/20 10:23:08;;;;;;;5.37;1.57;;;2.30;99.90;;;;;;5028537;28;20214;-41
2022/01/20 10:25:43;;;;;;;4.30;1.23;;;2.20;99.90;;;;;;5050160;28;20279;-41
2022/01/20 10:28:23;;;;;;;5.67;1.10;;;2.20;99.90;;;;;;5045770;28;20219;-41
2022/01/20 10:30:55;;;;;;;2.53;0.90;;;2.10;99.90;;;;;;5060293;28;20300;-43
2022/01/20 10:33:22;;;;;;;3.70;1.43;;;2.10;99.90;;;;;;5050962;28;20213;-42
2022/01/20 10:35:52;;;;;;;3.60;0.60;;;1.90;99.90;;;;;;5043768;28;20210;-41
2022/01/20 10:38:30;;;;;;;1.60;0.80;;;1.80;99.90;;;;;;5035534;28;20287;-40
2022/01/20 10:41:02;;;;;;;4.60;0.60;;;1.80;99.90;;;;;;5039903;28;20215;-44
2022/01/20 10:43:33;;;;;;;2.53;0.70;;;1.70;99.90;;;;;;5043430;28;20627;-41
2022/01/20 10:46:08;;;;;;;1.97;0.33;;;1.80;99.90;;;;;;5041468;28;20824;-41
2022/01/20 10:48:35;;;;;;;2.93;0.77;;;1.80;99.90;;;;;;5054120;28;20240;-43
2022/01/20 10:51:15;;;;;;;2.13;0.77;;;1.90;99.90;;;;;;5038763;28;20190;-44
2022/01/20 10:53:43;;;;;;;4.57;0.70;;;2.00;99.90;;;;;;5043126;28;20214;-41
2022/01/20 10:56:11;;;;;;;5.83;0.93;;;2.00;99.90;;;;;;5034232;28;20978;-41
2022/01/20 10:58:37;;;;;;;3.63;1.13;;;2.00;99.90;;;;;;5040360;28;20758;-41
2022/01/20 11:01:16;;;;;;;4.67;0.90;;;2.00;99.90;;;;;;5044036;28;20208;-42
2022/01/20 11:03:42;;;;;;;4.53;1.30;;;2.10;99.90;;;;;;5048225;28;20692;-42
2022/01/20 11:06:10;;;;;;;3.10;0.80;;;2.20;99.90;;;;;;5050210;28;20260;-41
2022/01/20 11:08:54;;;;;;;4.37;1.10;;;2.30;99.90;;;;;;5044422;28;20233;-41
2022/01/20 11:11:31;;;;;;;9.20;1.33;;;2.50;99.90;;;;;;5037433;28;20214;-40
2022/01/20 11:14:27;;;;;;;7.97;1.53;;;2.60;99.90;;;;;;5049310;28;20210;-41
2022/01/20 11:16:54;;;;;;;10.40;1.27;;;2.70;99.90;;;;;;5041626;28;20206;-44
2022/01/20 11:19:22;;;;;;;6.87;1.77;;;2.80;99.90;;;;;;5052068;28;20211;-46
2022/01/20 11:21:51;;;;;;;7.17;1.63;;;2.90;99.90;;;;;;5054033;28;20210;-43
2022/01/20 11:24:24;;;;;;;7.43;1.13;;;3.10;99.90;;;;;;5037930;28;20325;-45
2022/01/20 11:27:36;;;;;;;8.00;1.53;;;3.10;99.90;;;;;;5018906;28;20617;-42
2022/01/20 11:30:15;;;;;;;7.37;1.50;;;3.30;99.90;;;;;;5035863;28;23004;-43
2022/01/20 11:32:59;;;;;;;5.17;1.43;;;3.40;99.90;;;;;;5032609;28;20260;-41
2022/01/20 11:35:43;;;;;;;5.27;1.20;;;3.50;99.90;;;;;;5052870;28;20597;-42
2022/01/20 11:38:12;;;;;;;9.23;1.67;;;3.50;99.90;;;;;;5041315;28;20187;-41
2022/01/20 11:40:50;;;;;;;7.67;1.30;;;3.60;99.90;;;;;;5029219;28;20219;-40
2022/01/20 11:43:19;;;;;;;7.93;1.70;;;3.60;99.90;;;;;;5048127;28;20186;-45
2022/01/20 11:45:50;;;;;;;8.83;2.03;;;3.70;99.90;;;;;;5039875;28;20699;-41
2022/01/20 11:48:19;;;;;;;7.00;1.33;;;3.70;99.90;;;;;;5049832;28;20698;-44
2022/01/20 11:50:48;;;;;;;9.80;1.80;;;3.60;99.90;;;;;;5039669;28;20203;-42
2022/01/20 11:53:17;;;;;;;11.57;1.43;;;3.60;99.90;;;;;;5041750;28;20204;-45
2022/01/20 11:55:47;;;;;;;6.40;1.43;;;3.60;99.90;;;;;;5031042;28;20234;-41
2022/01/20 11:58:16;;;;;;;6.50;1.57;;;3.70;99.90;;;;;;5054972;28;20667;-48
2022/01/20 12:00:44;;;;;;;10.47;1.80;;;3.70;99.90;;;;;;5044440;28;20301;-41
2022/01/20 12:03:13;;;;;;;10.10;2.30;;;3.70;99.90;;;;;;5045365;28;20254;-43
2022/01/20 12:05:57;;;;;;;5.83;1.63;;;3.70;99.90;;;;;;5042425;28;20226;-41
2022/01/20 12:08:53;;;;;;;7.13;1.33;;;3.70;99.90;;;;;;5049976;28;20292;-41
2022/01/20 12:11:20;;;;;;;9.37;1.83;;;3.70;99.90;;;;;;5045480;28;20206;-43
2022/01/20 12:13:48;;;;;;;6.37;1.60;;;3.50;99.90;;;;;;5031540;28;20215;-42
2022/01/20 12:16:20;;;;;;;6.60;1.40;;;3.50;99.90;;;;;;5042920;28;20250;-45
2022/01/20 12:18:50;;;;;;;7.17;1.47;;;3.40;99.90;;;;;;5034866;28;20203;-42
2022/01/20 12:21:18;;;;;;;6.50;1.27;;;3.40;99.90;;;;;;5050318;28;20648;-43
2022/01/20 12:23:47;;;;;;;8.90;1.80;;;3.50;99.90;;;;;;5041572;28;20207;-41
2022/01/20 12:26:15;;;;;;;9.37;1.63;;;3.60;99.90;;;;;;5044598;28;20223;-43
2022/01/20 12:28:42;;;;;;;10.50;1.67;;;3.70;99.90;;;;;;5035175;28;20563;-41
2022/01/20 12:31:09;;;;;;;7.77;1.50;;;3.70;99.90;;;;;;5043341;28;20190;-41
2022/01/20 12:33:44;;;;;;;7.03;1.53;;;3.70;99.90;;;;;;5037955;28;20867;-41
2022/01/20 12:36:13;;;;;;;3.80;1.30;;;3.70;99.90;;;;;;5042263;28;20228;-43
2022/01/20 12:38:40;;;;;;;4.53;1.23;;;3.60;99.90;;;;;;5045950;28;20209;-40
2022/01/20 12:41:09;;;;;;;9.70;1.70;;;3.50;99.90;;;;;;5036967;28;21921;-42
2022/01/20 12:43:39;;;;;;;8.57;1.20;;;3.30;99.90;;;;;;5027061;28;20211;-42
2022/01/20 12:46:06;;;;;;;7.97;1.60;;;2.90;99.90;;;;;;5052120;28;20223;-41
2022/01/20 12:48:34;;;;;;;7.07;1.40;;;2.50;99.90;;;;;;5043698;28;20208;-41
2022/01/20 12:51:04;;;;;;;3.47;1.20;;;2.20;99.90;;;;;;5041331;28;20208;-43
2022/01/20 12:53:42;;;;;;;6.23;1.10;;;2.00;99.90;;;;;;5043330;28;20250;-41
2022/01/20 12:56:10;;;;;;;7.23;1.07;;;1.90;99.90;;;;;;5049439;28;20222;-41
2022/01/20 12:58:52;;;;;;;5.73;1.20;;;1.90;99.90;;;;;;5029608;28;20404;-43
2022/01/20 13:01:19;;;;;;;4.93;0.87;;;2.00;99.90;;;;;;5050520;28;20203;-46
2022/01/20 13:03:46;;;;;;;3.10;0.80;;;2.10;99.90;;;;;;5044839;28;20225;-47
2022/01/20 13:06:24;;;;;;;7.77;1.20;;;2.20;99.90;;;;;;5052556;28;20731;-42
2022/01/20 13:09:04;;;;;;;2.83;0.50;;;2.20;99.90;;;;;;5046147;28;20282;-45
2022/01/20 13:11:36;;;;;;;3.07;0.60;;;2.10;99.90;;;;;;5048856;28;20223;-42
2022/01/20 13:14:03;;;;;;;2.67;0.70;;;2.10;99.90;;;;;;5047614;28;20199;-41
2022/01/20 13:16:31;;;;;;;4.43;0.80;;;1.90;99.90;;;;;;5038942;28;20230;-41
2022/01/20 13:19:00;;;;;;;3.77;1.00;;;1.80;99.90;;;;;;5047666;28;20210;-43
2022/01/20 13:21:41;;;;;;;3.33;1.07;;;1.70;99.90;;;;;;5054791;28;20202;-44
2022/01/20 13:24:12;;;;;;;4.47;0.83;;;1.60;99.90;;;;;;5041485;28;20214;-41
2022/01/20 13:26:47;;;;;;;4.60;0.77;;;1.40;99.90;;;;;;5053816;28;20236;-43
2022/01/20 13:29:14;;;;;;;2.53;0.50;;;1.30;99.90;;;;;;5047372;28;20225;-46
2022/01/20 13:31:41;;;;;;;3.40;1.17;;;1.30;99.90;;;;;;5028755;28;20222;-41
2022/01/20 13:34:11;;;;;;;3.07;0.87;;;1.30;99.90;;;;;;5039665;28;20199;-41
2022/01/20 13:36:41;;;;;;;6.83;1.20;;;1.40;99.90;;;;;;5047412;28;20199;-42
2022/01/20 13:39:08;;;;;;;6.70;0.90;;;1.50;99.90;;;;;;5042150;28;20202;-42
2022/01/20 13:41:35;;;;;;;1.53;0.50;;;1.70;99.90;;;;;;5047793;28;20702;-40
2022/01/20 13:47:05;;;;;;;4.97;1.20;;;2.00;99.90;;;;;;5032947;28;20234;-41
2022/01/20 13:49:33;;;;;;;5.47;1.20;;;2.10;99.90;;;;;;5041560;28;21438;-40
2022/01/20 13:52:04;;;;;;;5.77;1.20;;;2.20;99.90;;;;;;5050480;28;20213;-40
2022/01/20 13:54:42;;;;;;;2.70;0.63;;;2.20;99.90;;;;;;5040559;28;20226;-43
2022/01/20 13:57:10;;;;;;;4.10;0.90;;;2.30;99.90;;;;;;5048793;28;20198;-42
2022/01/20 13:59:48;;;;;;;4.13;1.00;;;2.30;99.90;;;;;;5047167;28;20214;-41
2022/01/20 14:02:15;;;;;;;2.30;0.70;;;2.40;99.90;;;;;;5037127;28;20210;-41
2022/01/20 14:04:42;;;;;;;3.87;1.17;;;2.40;99.90;;;;;;5046466;28;20261;-43